Time;durP1;ratioP1;P1;durP2;ratioP2;P2;SDS_P1;SDS_P2;PMS_P1;PMS_P2;Temp;Humidity;BMP_temperature;BMP_pressure;BME280_temperature;BME280_humidity;BME280_pressure;Samples;Min_cycle;Max_cycle;Signal;HPM_P1;HPM_P2
2022/02/05 00:00:41;;;;;;;19.67;3.03;;;4.80;99.90;;;;;;5082391;28;20435;-76
2022/02/05 00:03:18;;;;;;;17.55;3.78;;;4.80;99.90;;;;;;5082710;28;20048;-76
2022/02/05 00:05:52;;;;;;;16.45;2.67;;;4.70;99.90;;;;;;5095350;28;20063;-76
2022/02/05 00:08:29;;;;;;;15.52;2.10;;;4.80;99.90;;;;;;5081051;28;20040;-75
2022/02/05 00:11:31;;;;;;;15.77;2.30;;;4.80;99.90;;;;;;5078997;28;20044;-76
2022/02/05 00:38:18;;;;;;;14.70;2.67;;;4.60;99.90;;;;;;5084420;28;20052;-75
2022/02/05 00:43:58;;;;;;;21.35;2.85;;;4.60;99.90;;;;;;5084373;28;20040;-75
2022/02/05 00:46:26;;;;;;;19.55;4.22;;;4.50;99.90;;;;;;5083672;28;20040;-75
2022/02/05 00:48:52;;;;;;;16.05;2.00;;;4.50;99.90;;;;;;5085554;28;20044;-76
2022/02/05 00:51:33;;;;;;;18.00;3.28;;;4.50;99.90;;;;;;5082722;28;20040;-76
2022/02/05 00:56:49;;;;;;;20.40;2.45;;;4.50;99.90;;;;;;5082805;28;20036;-76
2022/02/05 00:59:13;;;;;;;25.87;3.70;;;4.50;99.90;;;;;;5082576;28;20052;-76
2022/02/05 01:01:40;;;;;;;14.43;2.28;;;4.50;99.90;;;;;;5083012;28;20290;-76
2022/02/05 01:04:06;;;;;;;14.95;1.92;;;4.50;99.90;;;;;;5084406;28;20040;-76
2022/02/05 01:06:32;;;;;;;13.98;2.20;;;4.50;99.90;;;;;;5080440;28;20550;-76
2022/02/05 01:08:59;;;;;;;19.25;2.78;;;4.50;99.90;;;;;;5084560;28;20036;-77
2022/02/05 01:11:24;;;;;;;17.80;2.65;;;4.50;99.90;;;;;;5084618;28;20098;-76
2022/02/05 01:13:52;;;;;;;16.50;2.75;;;4.50;99.90;;;;;;5080054;28;20043;-76
2022/02/05 01:16:40;;;;;;;18.80;2.30;;;4.50;99.90;;;;;;5080594;28;20039;-76
2022/02/05 01:19:05;;;;;;;15.73;2.28;;;4.50;99.90;;;;;;5082490;28;20394;-77
2022/02/05 01:21:42;;;;;;;27.50;2.45;;;4.50;99.90;;;;;;5082057;28;20048;-76
2022/02/05 01:24:12;;;;;;;20.20;2.08;;;4.50;99.90;;;;;;5081272;28;20048;-76
2022/02/05 01:26:44;;;;;;;13.73;1.92;;;4.50;99.90;;;;;;5081180;28;20044;-76
2022/02/05 01:29:30;;;;;;;10.90;1.98;;;4.50;99.90;;;;;;5078488;28;20048;-76
2022/02/05 01:31:59;;;;;;;17.05;2.22;;;4.60;99.90;;;;;;5082020;28;20498;-77
2022/02/05 01:34:33;;;;;;;17.05;2.15;;;4.70;99.90;;;;;;5078213;28;20051;-76
2022/02/05 01:50:55;;;;;;;16.90;2.13;;;4.80;99.90;;;;;;5080774;28;20178;-76
2022/02/05 01:53:51;;;;;;;15.77;2.72;;;4.80;99.90;;;;;;5081569;28;20819;-76
2022/02/05 01:56:34;;;;;;;16.92;2.58;;;4.90;99.90;;;;;;5081941;28;20047;-77
2022/02/05 02:10:08;;;;;;;9.38;1.30;;;4.90;99.90;;;;;;5080167;28;20131;-77
2022/02/05 02:12:40;;;;;;;17.63;2.65;;;4.90;99.90;;;;;;5081265;28;20441;-76
2022/02/05 02:15:12;;;;;;;12.55;1.77;;;4.90;99.90;;;;;;5087272;28;20042;-77
2022/02/05 02:18:15;;;;;;;13.85;2.70;;;4.90;99.90;;;;;;5083103;28;20040;-76
2022/02/05 02:26:46;;;;;;;17.73;1.77;;;4.80;99.90;;;;;;5080264;28;20036;-77
2022/02/05 02:29:18;;;;;;;21.70;2.75;;;4.90;99.90;;;;;;5082861;28;20059;-77
2022/02/05 02:31:48;;;;;;;16.98;2.03;;;4.90;99.90;;;;;;5082304;28;20036;-77
2022/02/05 02:34:19;;;;;;;22.30;2.50;;;4.80;99.90;;;;;;5082158;28;20044;-77
2022/02/05 02:36:51;;;;;;;12.15;2.22;;;4.80;99.90;;;;;;5081075;28;20041;-77
2022/02/05 02:39:22;;;;;;;17.00;2.50;;;4.80;99.90;;;;;;5078679;28;20055;-77
2022/02/05 02:42:00;;;;;;;16.15;2.42;;;4.80;99.90;;;;;;5078703;28;20051;-77
2022/02/05 02:44:26;;;;;;;17.35;2.75;;;4.70;99.90;;;;;;5082338;28;20083;-76
2022/02/05 02:46:51;;;;;;;22.02;2.60;;;4.60;99.90;;;;;;5081089;28;20498;-77
2022/02/05 02:49:26;;;;;;;16.63;2.85;;;4.70;99.90;;;;;;5083247;28;20448;-76
2022/02/05 02:57:24;;;;;;;17.50;3.58;;;4.60;99.90;;;;;;5081616;28;20047;-77
2022/02/05 02:59:54;;;;;;;19.77;3.40;;;4.70;99.90;;;;;;5079951;28;20059;-77
2022/02/05 03:02:23;;;;;;;20.13;2.92;;;4.60;99.90;;;;;;5076915;28;20039;-76
2022/02/05 03:04:49;;;;;;;18.02;2.67;;;4.60;99.90;;;;;;5079278;28;20172;-76
2022/02/05 03:07:15;;;;;;;18.42;2.47;;;4.60;99.90;;;;;;5077643;28;20044;-77
2022/02/05 03:09:43;;;;;;;25.60;2.70;;;4.60;99.90;;;;;;5085645;28;20045;-77
2022/02/05 03:12:09;;;;;;;23.90;3.22;;;4.60;99.90;;;;;;5078764;28;20075;-77
2022/02/05 03:14:34;;;;;;;19.85;2.95;;;4.60;99.90;;;;;;5080997;28;20080;-76
2022/02/05 03:17:15;;;;;;;18.55;2.67;;;4.60;99.90;;;;;;5077802;28;20031;-77
2022/02/05 03:19:41;;;;;;;17.90;3.00;;;4.60;99.90;;;;;;5081249;28;20075;-77
2022/02/05 03:22:07;;;;;;;14.68;2.17;;;4.60;99.90;;;;;;5082106;28;20039;-77
2022/02/05 03:24:32;;;;;;;17.45;2.22;;;4.70;99.90;;;;;;5079416;28;20028;-77
2022/02/05 03:26:58;;;;;;;22.08;2.75;;;4.60;99.90;;;;;;5082771;28;20127;-77
2022/02/05 03:29:23;;;;;;;15.85;2.25;;;4.60;99.90;;;;;;5079929;28;20033;-77
2022/02/05 03:31:49;;;;;;;16.65;2.67;;;4.60;99.90;;;;;;5080842;28;20047;-76
2022/02/05 03:34:15;;;;;;;17.88;1.90;;;4.60;99.90;;;;;;5083440;28;20063;-77
2022/02/05 03:36:41;;;;;;;17.73;2.50;;;4.60;99.90;;;;;;5080369;28;20082;-77
2022/02/05 03:39:08;;;;;;;25.20;2.95;;;4.50;99.90;;;;;;5084573;28;20044;-77
2022/02/05 03:41:34;;;;;;;15.20;2.40;;;4.50;99.90;;;;;;5080555;28;20036;-77
2022/02/05 03:44:00;;;;;;;22.65;2.58;;;4.40;99.90;;;;;;5078580;28;20039;-77
2022/02/05 03:46:26;;;;;;;16.80;2.35;;;4.50;99.90;;;;;;5079453;28;20050;-77
2022/02/05 03:48:51;;;;;;;19.73;2.58;;;4.40;99.90;;;;;;5080738;28;20146;-77
2022/02/05 03:51:17;;;;;;;14.88;2.08;;;4.40;99.90;;;;;;5078492;28;20043;-77
2022/02/05 03:53:42;;;;;;;14.93;2.67;;;4.40;99.90;;;;;;5081107;28;20036;-77
2022/02/05 03:56:08;;;;;;;17.77;2.92;;;4.40;99.90;;;;;;5082983;28;20044;-77
2022/02/05 03:58:34;;;;;;;16.98;3.13;;;4.40;99.90;;;;;;5077032;28;20040;-77
2022/02/05 04:01:00;;;;;;;14.98;2.63;;;4.40;99.90;;;;;;5095080;28;20032;-76
2022/02/05 04:03:25;;;;;;;21.60;2.63;;;4.40;99.90;;;;;;5080650;28;20118;-77
2022/02/05 04:05:51;;;;;;;15.68;2.95;;;4.40;99.90;;;;;;5078444;28;20127;-77
2022/02/05 04:08:17;;;;;;;22.02;2.42;;;4.40;99.90;;;;;;5080962;28;20078;-76
2022/02/05 04:10:59;;;;;;;18.73;2.78;;;4.40;99.90;;;;;;5082198;28;20036;-77
2022/02/05 04:16:24;;;;;;;18.15;2.63;;;4.40;99.90;;;;;;5085424;28;20044;-77
2022/02/05 04:18:53;;;;;;;20.30;3.03;;;4.50;99.90;;;;;;5082991;28;20128;-77
2022/02/05 04:21:20;;;;;;;19.95;4.05;;;4.40;99.90;;;;;;5083011;28;20067;-77
2022/02/05 04:23:47;;;;;;;19.55;3.05;;;4.40;99.90;;;;;;5084611;28;20099;-77
2022/02/05 04:26:14;;;;;;;16.80;2.50;;;4.30;99.90;;;;;;5085442;28;20040;-77
2022/02/05 04:28:40;;;;;;;15.63;2.25;;;4.30;99.90;;;;;;5082374;28;20044;-77
2022/02/05 04:31:05;;;;;;;20.20;3.40;;;4.30;99.90;;;;;;5085111;28;20036;-77
2022/02/05 04:33:31;;;;;;;13.07;2.70;;;4.30;99.90;;;;;;5083852;28;20466;-77
2022/02/05 04:35:57;;;;;;;22.05;3.67;;;4.30;99.90;;;;;;5081235;28;20051;-77
2022/02/05 04:38:23;;;;;;;21.98;4.15;;;4.20;99.90;;;;;;5086263;28;20399;-77
2022/02/05 04:40:57;;;;;;;15.45;2.38;;;4.30;99.90;;;;;;5083824;28;20040;-77
2022/02/05 04:46:26;;;;;;;16.88;3.08;;;4.30;99.90;;;;;;5081949;28;20486;-77
2022/02/05 04:54:33;;;;;;;16.27;2.60;;;4.40;99.90;;;;;;5081275;28;20142;-77
2022/02/05 04:57:09;;;;;;;21.08;3.47;;;4.40;99.90;;;;;;5084748;28;20119;-77
2022/02/05 05:00:05;;;;;;;17.45;2.45;;;4.40;99.90;;;;;;5080049;28;20054;-78
2022/02/05 05:05:22;;;;;;;21.90;3.95;;;4.50;99.90;;;;;;5084579;28;20054;-80
2022/02/05 05:13:02;;;;;;;17.00;2.25;;;4.40;99.90;;;;;;5079492;28;20045;-80
2022/02/05 05:15:38;;;;;;;15.73;2.63;;;4.30;99.90;;;;;;5086822;28;20032;-81
2022/02/05 05:20:56;;;;;;;18.63;3.13;;;4.20;99.90;;;;;;5086163;28;20040;-80
2022/02/05 05:23:22;;;;;;;21.02;3.15;;;4.10;99.90;;;;;;5081631;28;20680;-80
2022/02/05 05:25:47;;;;;;;26.42;4.50;;;4.10;99.90;;;;;;5087412;28;20028;-80
2022/02/05 05:28:13;;;;;;;24.27;3.10;;;4.20;99.90;;;;;;5083219;28;20054;-80
2022/02/05 05:30:40;;;;;;;21.35;4.55;;;4.10;99.90;;;;;;5083138;28;20485;-80
2022/02/05 05:33:07;;;;;;;13.38;2.85;;;4.20;99.90;;;;;;5086846;28;20756;-79
2022/02/05 05:35:32;;;;;;;15.65;2.20;;;4.20;99.90;;;;;;5084624;28;20036;-80
2022/02/05 05:37:58;;;;;;;20.20;3.45;;;4.10;99.90;;;;;;5095185;28;20047;-80
2022/02/05 05:40:23;;;;;;;12.85;2.08;;;4.20;99.90;;;;;;5083903;28;20039;-80
2022/02/05 05:42:57;;;;;;;18.20;2.20;;;4.10;99.90;;;;;;5085436;28;20032;-80
2022/02/05 05:46:01;;;;;;;21.60;2.35;;;4.10;99.90;;;;;;5084334;28;20043;-80
2022/02/05 05:48:29;;;;;;;14.60;2.15;;;4.20;99.90;;;;;;5083659;28;20036;-80
2022/02/05 05:51:00;;;;;;;16.50;2.40;;;4.10;99.90;;;;;;5080927;28;20048;-80
2022/02/05 05:53:28;;;;;;;16.40;2.55;;;4.10;99.90;;;;;;5077212;28;20036;-80
2022/02/05 05:55:56;;;;;;;11.25;1.65;;;4.00;99.90;;;;;;5081280;28;20040;-80
2022/02/05 05:58:22;;;;;;;20.73;2.42;;;4.10;99.90;;;;;;5084284;28;20039;-79
2022/02/05 06:00:49;;;;;;;21.80;2.50;;;4.00;99.90;;;;;;5080899;28;20385;-80
2022/02/05 06:03:15;;;;;;;18.20;3.05;;;4.00;99.90;;;;;;5081515;28;20303;-80
2022/02/05 06:05:41;;;;;;;20.30;2.80;;;3.90;99.90;;;;;;5082282;28;20036;-80
2022/02/05 06:08:06;;;;;;;21.30;2.67;;;4.00;99.90;;;;;;5082819;28;20212;-80
2022/02/05 06:10:33;;;;;;;16.88;2.50;;;3.90;99.90;;;;;;5081950;28;20032;-80
2022/02/05 06:12:58;;;;;;;17.58;1.85;;;3.90;99.90;;;;;;5082096;28;20037;-80
2022/02/05 06:15:24;;;;;;;22.40;2.67;;;3.80;99.90;;;;;;5078547;28;20085;-80
2022/02/05 06:17:51;;;;;;;15.85;2.75;;;3.90;99.90;;;;;;5084080;28;20055;-80
2022/02/05 06:20:18;;;;;;;12.65;1.83;;;3.90;99.90;;;;;;5078572;28;20508;-80
2022/02/05 06:22:44;;;;;;;16.30;1.98;;;3.90;99.90;;;;;;5084229;28;20063;-80
2022/02/05 06:25:10;;;;;;;21.20;2.13;;;3.80;99.90;;;;;;5082563;28;20035;-80
2022/02/05 06:27:36;;;;;;;17.10;1.67;;;3.80;99.90;;;;;;5081116;28;20740;-80
2022/02/05 06:30:03;;;;;;;14.10;2.25;;;3.70;99.90;;;;;;5080667;28;20525;-80
2022/02/05 06:32:29;;;;;;;13.75;1.80;;;3.70;99.90;;;;;;5080835;28;20047;-80
2022/02/05 06:34:54;;;;;;;20.67;2.78;;;3.70;99.90;;;;;;5085332;28;20047;-80
2022/02/05 06:37:20;;;;;;;19.67;2.05;;;3.80;99.90;;;;;;5084331;28;20043;-80
2022/02/05 06:39:46;;;;;;;13.65;2.08;;;3.70;99.90;;;;;;5082771;28;20041;-81
2022/02/05 06:42:12;;;;;;;15.23;2.50;;;3.70;99.90;;;;;;5081765;28;20417;-80
2022/02/05 06:44:37;;;;;;;15.77;2.10;;;3.70;99.90;;;;;;5087262;28;20492;-80
2022/02/05 06:47:03;;;;;;;19.05;3.05;;;3.60;99.90;;;;;;5080705;28;20033;-80
2022/02/05 06:49:30;;;;;;;15.10;2.03;;;3.70;99.90;;;;;;5081054;28;20040;-80
2022/02/05 06:51:57;;;;;;;13.85;2.30;;;3.70;99.90;;;;;;5083074;28;20037;-80
2022/02/05 06:54:23;;;;;;;16.30;2.20;;;3.70;99.90;;;;;;5082268;28;20039;-80
2022/02/05 06:56:48;;;;;;;19.02;2.42;;;3.70;99.90;;;;;;5080908;28;20052;-80
2022/02/05 06:59:14;;;;;;;19.25;2.80;;;3.70;99.90;;;;;;5080153;28;20036;-80
2022/02/05 07:01:40;;;;;;;15.32;2.65;;;3.70;99.90;;;;;;5079523;28;20070;-80
2022/02/05 07:04:06;;;;;;;18.83;3.10;;;3.70;99.90;;;;;;5082936;28;20032;-80
2022/02/05 07:06:32;;;;;;;16.58;2.22;;;3.60;99.90;;;;;;5081484;28;20047;-80
2022/02/05 07:08:58;;;;;;;17.25;2.95;;;3.60;99.90;;;;;;5083753;28;20049;-80
2022/02/05 07:11:24;;;;;;;22.08;2.90;;;3.60;99.90;;;;;;5082395;28;20050;-80
2022/02/05 07:13:52;;;;;;;20.73;3.47;;;3.60;99.90;;;;;;5083413;28;20413;-80
2022/02/05 07:16:24;;;;;;;20.33;2.78;;;3.60;99.90;;;;;;5079227;28;20075;-80
2022/02/05 07:21:21;;;;;;;12.23;1.85;;;3.60;99.90;;;;;;5077588;28;20127;-80
2022/02/05 07:24:27;;;;;;;16.80;1.77;;;3.60;99.90;;;;;;5074808;28;20059;-80
2022/02/05 07:29:22;;;;;;;16.23;2.58;;;3.50;99.90;;;;;;5076617;28;20044;-80
2022/02/05 07:31:54;;;;;;;17.02;2.65;;;3.60;99.90;;;;;;5074490;28;20363;-80
2022/02/05 07:34:24;;;;;;;12.73;2.10;;;3.60;99.90;;;;;;5076487;28;20048;-78
2022/02/05 07:36:50;;;;;;;19.48;2.30;;;3.50;99.90;;;;;;5079584;28;20037;-77
2022/02/05 07:39:17;;;;;;;10.82;1.48;;;3.60;99.90;;;;;;5079387;28;20496;-77
2022/02/05 07:41:43;;;;;;;21.58;3.65;;;3.50;99.90;;;;;;5077807;28;20059;-77
2022/02/05 07:44:13;;;;;;;16.58;2.05;;;3.60;99.90;;;;;;5075349;28;20039;-78
2022/02/05 07:46:45;;;;;;;17.63;2.67;;;3.60;99.90;;;;;;5076397;28;21020;-77
2022/02/05 07:49:16;;;;;;;16.27;2.70;;;3.50;99.90;;;;;;5076502;28;20402;-77
2022/02/05 07:51:42;;;;;;;15.93;2.20;;;3.50;99.90;;;;;;5071091;28;20093;-77
2022/02/05 07:54:11;;;;;;;21.85;3.20;;;3.50;99.90;;;;;;5078111;28;20436;-77
2022/02/05 07:56:40;;;;;;;18.05;2.42;;;3.60;99.90;;;;;;5078746;28;20044;-77
2022/02/05 07:59:06;;;;;;;16.15;2.30;;;3.60;99.90;;;;;;5076950;28;20045;-77
2022/02/05 08:01:32;;;;;;;16.13;2.70;;;3.60;99.90;;;;;;5076449;28;20046;-78
2022/02/05 08:03:59;;;;;;;18.02;3.38;;;3.60;99.90;;;;;;5079274;28;20041;-77
2022/02/05 08:06:24;;;;;;;22.67;3.08;;;3.60;99.90;;;;;;5061997;28;20043;-76
2022/02/05 08:08:54;;;;;;;14.48;3.00;;;3.60;99.90;;;;;;5076340;28;20036;-77
2022/02/05 08:11:22;;;;;;;19.75;2.40;;;3.60;99.90;;;;;;5074645;28;20624;-77
2022/02/05 08:13:50;;;;;;;18.30;3.03;;;3.70;99.90;;;;;;5076993;28;20040;-77
2022/02/05 08:18:48;;;;;;;13.95;2.13;;;3.80;99.90;;;;;;5078382;28;20186;-77
2022/02/05 08:21:14;;;;;;;18.13;2.35;;;3.80;99.90;;;;;;5076463;28;20041;-77
2022/02/05 08:23:39;;;;;;;23.25;3.15;;;3.80;99.90;;;;;;5079232;28;20393;-77
2022/02/05 08:26:05;;;;;;;20.58;2.30;;;3.90;99.90;;;;;;5080624;28;20603;-77
2022/02/05 08:28:32;;;;;;;19.38;2.42;;;3.90;99.90;;;;;;5081653;28;20131;-77
2022/02/05 08:30:58;;;;;;;20.60;2.90;;;4.00;99.90;;;;;;5080623;28;20048;-77
2022/02/05 08:33:24;;;;;;;20.15;2.40;;;4.10;99.90;;;;;;5081128;28;20044;-76
2022/02/05 08:35:50;;;;;;;17.85;2.92;;;4.10;99.90;;;;;;5081759;28;20040;-77
2022/02/05 08:38:20;;;;;;;19.90;2.55;;;4.10;99.90;;;;;;5076445;28;20040;-77
2022/02/05 08:40:46;;;;;;;15.73;2.63;;;4.10;99.90;;;;;;5085882;28;21235;-77
2022/02/05 08:43:13;;;;;;;18.23;2.33;;;4.20;99.90;;;;;;5076098;28;20028;-77
2022/02/05 08:45:39;;;;;;;20.90;4.15;;;4.20;99.90;;;;;;5075377;28;20501;-77
2022/02/05 08:48:06;;;;;;;13.90;2.38;;;4.30;99.90;;;;;;5074612;28;20048;-77
2022/02/05 08:50:32;;;;;;;18.45;2.28;;;4.40;99.90;;;;;;5076398;28;20161;-77
2022/02/05 08:52:58;;;;;;;14.88;2.42;;;4.50;99.90;;;;;;5076288;28;20046;-77
2022/02/05 08:55:28;;;;;;;13.38;2.10;;;4.50;99.90;;;;;;5079391;28;20036;-77
2022/02/05 08:57:55;;;;;;;12.55;2.13;;;4.50;99.90;;;;;;5058192;28;20521;-77
2022/02/05 09:00:24;;;;;;;17.08;2.70;;;4.60;99.90;;;;;;5080311;28;20044;-77
2022/02/05 09:02:58;;;;;;;14.20;2.72;;;4.70;99.90;;;;;;5083662;28;20051;-77
2022/02/05 09:05:39;;;;;;;13.13;2.25;;;4.80;99.90;;;;;;5083737;28;20145;-77
2022/02/05 09:08:10;;;;;;;13.23;2.80;;;4.90;99.90;;;;;;5084212;28;20043;-77
2022/02/05 09:10:54;;;;;;;25.77;3.80;;;5.00;99.90;;;;;;5082729;28;20386;-77
2022/02/05 09:16:01;;;;;;;17.15;2.38;;;5.20;99.90;;;;;;5082842;28;20051;-77
2022/02/05 09:18:27;;;;;;;16.83;2.53;;;5.20;99.90;;;;;;5070601;28;20433;-77
2022/02/05 09:20:53;;;;;;;19.40;2.72;;;5.30;99.90;;;;;;5082884;28;20047;-77
2022/02/05 09:23:19;;;;;;;19.40;2.70;;;5.30;99.90;;;;;;5083619;28;20089;-77
2022/02/05 09:25:45;;;;;;;20.42;2.95;;;5.40;99.90;;;;;;5084474;28;20131;-77
2022/02/05 09:28:11;;;;;;;16.92;2.90;;;5.50;99.90;;;;;;5082558;28;20131;-77
2022/02/05 09:30:50;;;;;;;19.58;2.47;;;5.60;99.90;;;;;;5065747;28;20072;-77
2022/02/05 09:33:17;;;;;;;14.63;2.65;;;5.60;99.90;;;;;;5081197;28;20538;-76
2022/02/05 09:35:42;;;;;;;18.40;2.90;;;5.60;99.90;;;;;;5083020;28;20124;-77
2022/02/05 09:38:08;;;;;;;20.20;3.03;;;5.60;99.90;;;;;;5084284;28;20135;-77
2022/02/05 09:40:34;;;;;;;18.33;3.20;;;5.70;99.90;;;;;;5078782;28;20025;-76
2022/02/05 09:42:59;;;;;;;19.35;2.80;;;5.70;99.90;;;;;;5078745;28;20828;-77
2022/02/05 09:45:25;;;;;;;12.45;2.72;;;5.80;99.90;;;;;;5084431;28;20028;-77
2022/02/05 09:47:52;;;;;;;16.02;2.65;;;5.80;99.90;;;;;;5081378;28;20042;-77
2022/02/05 09:50:21;;;;;;;20.85;3.40;;;5.90;99.90;;;;;;5082556;28;20135;-76
2022/02/05 09:52:52;;;;;;;21.17;3.47;;;5.90;99.90;;;;;;5082306;28;20040;-77
2022/02/05 09:55:18;;;;;;;18.40;3.10;;;6.00;99.90;;;;;;5085116;28;20065;-77
2022/02/05 09:57:44;;;;;;;15.40;3.63;;;6.00;99.90;;;;;;5081064;28;20047;-77
2022/02/05 10:00:17;;;;;;;20.90;2.80;;;6.00;99.90;;;;;;5080298;28;20040;-77
2022/02/05 10:02:43;;;;;;;21.42;3.45;;;5.90;99.90;;;;;;5088462;28;20028;-77
2022/02/05 10:05:16;;;;;;;18.77;3.50;;;6.00;99.90;;;;;;5083968;28;20028;-77
2022/02/05 10:07:56;;;;;;;22.23;3.03;;;6.00;99.90;;;;;;5084339;28;20083;-76
2022/02/05 10:10:22;;;;;;;22.48;2.75;;;6.00;99.90;;;;;;5063774;28;20494;-76
2022/02/05 10:13:07;;;;;;;20.80;5.13;;;6.10;99.90;;;;;;5079243;28;20044;-77
2022/02/05 10:15:34;;;;;;;17.63;2.58;;;6.10;99.90;;;;;;5078493;28;20081;-77
2022/02/05 10:18:02;;;;;;;14.63;2.60;;;6.20;99.90;;;;;;5083109;28;20165;-77
2022/02/05 10:20:29;;;;;;;16.98;2.70;;;6.20;99.90;;;;;;5082675;28;21018;-77
2022/02/05 10:22:56;;;;;;;16.95;2.65;;;6.20;99.90;;;;;;5084136;28;20090;-77
2022/02/05 10:25:27;;;;;;;15.95;2.47;;;6.20;99.90;;;;;;5078693;28;20055;-77
2022/02/05 10:27:53;;;;;;;17.23;2.88;;;6.20;99.90;;;;;;5081460;28;20048;-77
2022/02/05 10:30:30;;;;;;;13.98;2.63;;;6.10;99.90;;;;;;5080735;28;20048;-77
2022/02/05 10:33:09;;;;;;;15.93;2.65;;;6.20;99.90;;;;;;5081989;28;20083;-77
2022/02/05 10:35:52;;;;;;;15.13;2.05;;;6.20;99.90;;;;;;5080783;28;20102;-78
2022/02/05 10:38:38;;;;;;;15.15;2.55;;;6.20;99.90;;;;;;5081487;28;20047;-77
2022/02/05 10:43:53;;;;;;;12.48;1.80;;;6.20;99.90;;;;;;5079456;28;20036;-77
2022/02/05 10:46:19;;;;;;;13.77;2.05;;;6.30;99.90;;;;;;5080707;28;20041;-77
2022/02/05 10:48:45;;;;;;;17.77;2.90;;;6.30;99.90;;;;;;5079839;28;20107;-77
2022/02/05 10:51:12;;;;;;;15.90;2.95;;;6.30;99.90;;;;;;5076902;28;20048;-77
2022/02/05 10:53:53;;;;;;;18.08;2.50;;;6.30;99.90;;;;;;5079523;28;20048;-77
2022/02/05 10:56:29;;;;;;;16.13;2.45;;;6.40;99.90;;;;;;5080904;28;20555;-77
2022/02/05 11:07:14;;;;;;;9.38;1.98;;;6.60;99.90;;;;;;5079647;28;20418;-77
2022/02/05 11:09:43;;;;;;;21.05;2.88;;;6.60;99.90;;;;;;5079632;28;20059;-78
2022/02/05 11:20:09;;;;;;;;;;;6.70;99.90;;;;;;5081176;28;20169;-78
2022/02/05 11:22:39;;;;;;;13.57;1.95;;;6.60;99.90;;;;;;5083515;28;19974;-77
2022/02/05 11:25:06;;;;;;;11.18;1.83;;;6.70;99.90;;;;;;5079207;28;20486;-78
2022/02/05 11:27:32;;;;;;;11.93;2.42;;;6.60;99.90;;;;;;5082040;28;20059;-78
2022/02/05 11:30:26;;;;;;;11.10;1.83;;;6.60;99.90;;;;;;5081571;28;20478;-78
2022/02/05 11:32:53;;;;;;;12.95;2.30;;;6.60;99.90;;;;;;5079971;28;20040;-78
2022/02/05 11:35:33;;;;;;;12.85;2.65;;;6.60;99.90;;;;;;5082011;28;20424;-78
2022/02/05 11:38:02;;;;;;;14.73;2.13;;;6.60;99.90;;;;;;5083048;28;20036;-78
2022/02/05 11:40:42;;;;;;;13.63;2.10;;;6.60;99.90;;;;;;5085353;28;20036;-78
2022/02/05 11:43:18;;;;;;;15.52;3.13;;;6.60;99.90;;;;;;5066947;28;20044;-78
2022/02/05 11:45:43;;;;;;;17.40;3.05;;;6.60;99.90;;;;;;5077494;28;20466;-78
2022/02/05 11:48:44;;;;;;;15.77;2.72;;;6.70;99.90;;;;;;5082622;28;20051;-77
2022/02/05 11:51:17;;;;;;;17.85;2.75;;;6.70;99.90;;;;;;5092167;28;20047;-78
2022/02/05 11:54:16;;;;;;;11.80;2.03;;;6.70;99.90;;;;;;5079794;28;20054;-79
2022/02/05 11:57:02;;;;;;;14.13;1.77;;;6.80;99.90;;;;;;5066826;28;20064;-78
2022/02/05 11:59:34;;;;;;;17.93;2.00;;;6.80;99.90;;;;;;5081401;28;20143;-79
2022/02/05 12:02:14;;;;;;;16.25;2.13;;;6.80;99.90;;;;;;5074632;28;20041;-78
2022/02/05 12:04:40;;;;;;;12.15;1.98;;;6.90;99.90;;;;;;5083262;28;20035;-78
2022/02/05 12:07:08;;;;;;;11.57;1.70;;;6.90;99.90;;;;;;5077062;28;20101;-79
2022/02/05 12:09:47;;;;;;;14.30;2.17;;;6.90;99.90;;;;;;5066180;28;20041;-78
2022/02/05 12:12:26;;;;;;;15.90;2.10;;;6.90;99.90;;;;;;5077056;28;20054;-78
2022/02/05 12:15:12;;;;;;;15.15;2.30;;;6.90;99.90;;;;;;5082261;28;20048;-78
2022/02/05 12:26:19;;;;;;;19.52;2.13;;;7.00;99.90;;;;;;5077135;28;20086;-79
2022/02/05 12:28:47;;;;;;;11.45;2.22;;;7.00;99.90;;;;;;5081060;28;20134;-79
2022/02/05 12:31:19;;;;;;;15.07;1.95;;;7.00;99.90;;;;;;5082920;28;20051;-79
2022/02/05 12:33:46;;;;;;;14.18;2.80;;;7.10;99.90;;;;;;5076969;28;20040;-79
2022/02/05 12:36:14;;;;;;;11.90;2.10;;;7.10;99.90;;;;;;5081599;28;20040;-79
2022/02/05 12:38:44;;;;;;;15.23;3.03;;;7.20;99.90;;;;;;5086108;28;20093;-79
2022/02/05 12:41:12;;;;;;;16.45;2.40;;;7.10;99.90;;;;;;5071123;28;20123;-79
2022/02/05 12:43:57;;;;;;;15.60;3.00;;;7.30;99.90;;;;;;5086065;28;20036;-79
2022/02/05 12:46:42;;;;;;;13.18;1.98;;;7.40;99.90;;;;;;5084019;28;20529;-79
2022/02/05 12:49:17;;;;;;;13.67;1.70;;;7.40;99.90;;;;;;5087133;28;20040;-79
2022/02/05 12:51:44;;;;;;;9.77;2.15;;;7.60;99.90;;;;;;5077600;28;20090;-79
2022/02/05 12:54:14;;;;;;;12.75;2.40;;;7.50;99.90;;;;;;5083279;28;20082;-78
2022/02/05 12:56:42;;;;;;;17.52;2.78;;;7.60;99.90;;;;;;5080093;28;20044;-78
2022/02/05 12:59:14;;;;;;;15.52;1.80;;;7.60;99.90;;;;;;5082916;28;20048;-79
2022/02/05 13:02:05;;;;;;;9.35;2.85;;;7.60;99.90;;;;;;5085028;28;20118;-79
2022/02/05 13:04:36;;;;;;;13.60;2.35;;;7.50;99.90;;;;;;5081069;28;20394;-78
2022/02/05 13:07:02;;;;;;;16.45;2.05;;;7.60;99.90;;;;;;5082912;28;20066;-79
2022/02/05 13:09:29;;;;;;;12.80;2.47;;;7.50;99.90;;;;;;5082383;28;20489;-79
2022/02/05 13:12:03;;;;;;;14.68;1.85;;;7.40;99.90;;;;;;5080659;28;20029;-78
2022/02/05 13:14:35;;;;;;;14.10;1.83;;;7.40;99.90;;;;;;5083956;28;20043;-79
2022/02/05 13:17:00;;;;;;;13.43;2.50;;;7.50;99.90;;;;;;5084475;28;20138;-78
2022/02/05 13:19:30;;;;;;;15.13;2.33;;;7.50;99.90;;;;;;5084950;28;20041;-79
2022/02/05 13:35:55;;;;;;;14.48;2.65;;;7.70;99.90;;;;;;5079770;28;20048;-79
2022/02/05 13:38:21;;;;;;;14.13;1.90;;;7.70;99.90;;;;;;5081695;28;20076;-79
2022/02/05 13:40:50;;;;;;;10.57;1.55;;;7.70;99.90;;;;;;5081014;28;20060;-80
2022/02/05 13:43:19;;;;;;;10.05;1.50;;;7.80;99.90;;;;;;5084120;28;20032;-79
2022/02/05 13:45:45;;;;;;;9.23;1.70;;;7.80;99.90;;;;;;5079225;28;20056;-78
2022/02/05 13:48:23;;;;;;;9.77;2.58;;;7.80;99.90;;;;;;5086126;28;20044;-79
2022/02/05 13:50:49;;;;;;;7.57;1.33;;;7.80;99.90;;;;;;5097798;28;20054;-79
2022/02/05 13:53:15;;;;;;;10.68;2.13;;;7.70;99.90;;;;;;5085819;28;20487;-78
2022/02/05 13:55:42;;;;;;;10.68;1.60;;;7.70;99.90;;;;;;5080738;28;20089;-79
2022/02/05 13:58:08;;;;;;;16.73;3.17;;;7.60;99.90;;;;;;5084618;28;20081;-81
2022/02/05 14:00:54;;;;;;;11.25;1.63;;;7.60;99.90;;;;;;5083904;28;20071;-82
2022/02/05 14:03:33;;;;;;;9.18;1.23;;;7.50;99.90;;;;;;5082020;28;20132;-81
2022/02/05 14:06:13;;;;;;;12.00;1.75;;;7.50;99.90;;;;;;5078622;28;20033;-80
2022/02/05 14:08:46;;;;;;;9.90;1.75;;;7.60;99.90;;;;;;5081225;28;20151;-80
2022/02/05 14:11:14;;;;;;;13.18;1.65;;;7.60;99.90;;;;;;5081815;28;20052;-81
2022/02/05 14:13:41;;;;;;;12.40;1.48;;;6.80;99.90;;;;;;5082807;28;20048;-81
2022/02/05 14:16:09;;;;;;;12.10;2.20;;;7.70;99.90;;;;;;5081945;28;20040;-80
2022/02/05 14:18:57;;;;;;;11.32;1.85;;;7.70;99.90;;;;;;5079595;28;20082;-81
2022/02/05 14:21:35;;;;;;;11.18;2.17;;;7.70;99.90;;;;;;5084940;28;20067;-80
2022/02/05 14:24:01;;;;;;;8.77;1.50;;;7.60;99.90;;;;;;5079865;28;20078;-80
2022/02/05 14:26:31;;;;;;;11.25;1.65;;;7.70;99.90;;;;;;5078273;28;20074;-81
2022/02/05 14:28:58;;;;;;;9.05;1.50;;;7.50;99.90;;;;;;5080598;28;20040;-81
2022/02/05 14:31:42;;;;;;;12.75;1.77;;;7.50;99.90;;;;;;5083828;28;20062;-81
2022/02/05 14:41:49;;;;;;;12.80;2.22;;;7.40;99.90;;;;;;5080708;28;20048;-80
2022/02/05 14:44:15;;;;;;;10.68;2.20;;;7.40;99.90;;;;;;5079769;28;20036;-79
2022/02/05 14:46:41;;;;;;;9.55;2.78;;;7.30;99.90;;;;;;5082342;28;20044;-79
2022/02/05 14:49:08;;;;;;;10.30;2.22;;;7.40;99.90;;;;;;5082522;28;20052;-81
2022/02/05 14:51:33;;;;;;;13.50;2.08;;;7.30;99.90;;;;;;5081709;28;20462;-81
2022/02/05 14:53:59;;;;;;;11.77;2.20;;;7.40;99.90;;;;;;5079882;28;20075;-81
2022/02/05 14:56:25;;;;;;;13.73;3.25;;;7.30;99.90;;;;;;5081904;28;20036;-81
2022/02/05 14:58:51;;;;;;;12.85;2.47;;;7.30;99.90;;;;;;5082462;28;20154;-79
2022/02/05 15:01:21;;;;;;;9.02;2.33;;;7.30;99.90;;;;;;5080650;28;20667;-80
2022/02/05 15:03:50;;;;;;;10.77;2.97;;;7.30;99.90;;;;;;5082684;28;20036;-81
2022/02/05 15:06:21;;;;;;;14.60;2.85;;;7.30;99.90;;;;;;5082684;28;20413;-82
2022/02/05 15:08:49;;;;;;;10.82;2.28;;;7.20;99.90;;;;;;5079167;28;20509;-81
2022/02/05 15:11:19;;;;;;;9.95;1.52;;;7.30;99.90;;;;;;5082499;28;20141;-82
2022/02/05 15:13:45;;;;;;;14.75;2.47;;;7.30;99.90;;;;;;5081645;28;20130;-81
2022/02/05 15:16:12;;;;;;;11.52;2.22;;;7.20;99.90;;;;;;5080140;28;20130;-81
2022/02/05 15:18:47;;;;;;;11.77;2.17;;;7.20;99.90;;;;;;5082638;28;20055;-78
2022/02/05 15:21:12;;;;;;;10.23;3.28;;;7.20;99.90;;;;;;5078923;28;20045;-81
2022/02/05 15:23:38;;;;;;;14.35;3.60;;;7.20;99.90;;;;;;5081221;28;20038;-81
2022/02/05 15:26:05;;;;;;;8.30;2.05;;;7.20;99.90;;;;;;5081381;28;20035;-81
2022/02/05 15:28:31;;;;;;;8.25;2.50;;;7.10;99.90;;;;;;5080981;28;20040;-80
2022/02/05 15:30:57;;;;;;;11.40;2.08;;;7.20;99.90;;;;;;5081061;28;20042;-80